Asiatic Wave — 9V8790 — position and weather

sailwx.info

Track history (hours):
 
Tides and Currents Weather Stations Pressure Air Temp Water Temp Dewpoint Dewpoint Depression Visibility Wind Speed Wind Dir Waves Ship Positions

Asiatic Wave

Last reported at 2014-Nov-22 23:32 UTC. Time now 2014-Nov-23 00:02 UTC.
Position N 22°32' E 120°16'.

Length 148 m; draft 6.3 m.

Type: Cargo ship. MMSI: 564211000.

Date/timePositionNaut miles runAvg speedWind from/ knotsBaromVisibWave heightAir tempDewpointWater temp
2014-Nov-22 23:32N 22°32' E 120°16'0 0.0
2014-Nov-22 22:31N 22°32' E 120°16'1 1.1
2014-Nov-22 21:33N 22°32' E 120°15'9 8.6
2014-Nov-22 20:33N 22°27' E 120°08'1211.9
2014-Nov-22 19:33N 22°17' E 120°00'  
2014-Nov-17 09:12N 01°14' E 104°03'711.7
2014-Nov-17 08:33N 01°16' E 103°56'2 1.0
2014-Nov-17 06:18N 01°17' E 103°54'0 0.1
2014-Nov-17 05:33N 01°17' E 103°54'0 0.0
2014-Nov-17 04:23N 01°17' E 103°54'0 0.1
2014-Nov-17 03:32N 01°17' E 103°54'0 0.0
2014-Nov-17 02:19N 01°17' E 103°54'0 0.1
2014-Nov-17 01:31N 01°17' E 103°54'0 0.0
2014-Nov-17 00:34N 01°17' E 103°54'0 0.0
2014-Nov-16 23:27N 01°17' E 103°54'1 0.7
2014-Nov-16 22:33N 01°16' E 103°54'5 4.7
2014-Nov-16 21:30N 01°12' E 103°53'  
2014-Nov-13 15:21N 01°09' E 103°45'1113.6
2014-Nov-13 14:33N 01°13' E 103°55'1414.0
2014-Nov-13 13:33N 01°17' E 104°08'  
Track history (hours):
 
Tides and Currents Weather Stations Pressure Air Temp Water Temp Dewpoint Dewpoint Depression Visibility Wind Speed Wind Dir Waves Ship Positions

Asiatic Wave

Last reported at 2014-Nov-22 23:32 UTC. Time now 2014-Nov-23 00:02 UTC.
Position N 22°32' E 120°16'.

Length 148 m; draft 6.3 m.

Type: Cargo ship. MMSI: 564211000.

Date/timePositionNaut miles runAvg speedWind from/ knotsBaromVisibWave heightAir tempDewpointWater temp
2014-Nov-22 23:32N 22°32' E 120°16'0 0.0
2014-Nov-22 22:31N 22°32' E 120°16'1 1.1
2014-Nov-22 21:33N 22°32' E 120°15'9 8.6
2014-Nov-22 20:33N 22°27' E 120°08'1211.9
2014-Nov-22 19:33N 22°17' E 120°00'  
2014-Nov-17 09:12N 01°14' E 104°03'711.7
2014-Nov-17 08:33N 01°16' E 103°56'2 1.0
2014-Nov-17 06:18N 01°17' E 103°54'0 0.1
2014-Nov-17 05:33N 01°17' E 103°54'0 0.0
2014-Nov-17 04:23N 01°17' E 103°54'0 0.1
2014-Nov-17 03:32N 01°17' E 103°54'0 0.0
2014-Nov-17 02:19N 01°17' E 103°54'0 0.1
2014-Nov-17 01:31N 01°17' E 103°54'0 0.0
2014-Nov-17 00:34N 01°17' E 103°54'0 0.0
2014-Nov-16 23:27N 01°17' E 103°54'1 0.7
2014-Nov-16 22:33N 01°16' E 103°54'5 4.7
2014-Nov-16 21:30N 01°12' E 103°53'  
2014-Nov-13 15:21N 01°09' E 103°45'1113.6
2014-Nov-13 14:33N 01°13' E 103°55'1414.0
2014-Nov-13 13:33N 01°17' E 104°08'  

Dump ship's entire track history